Time;durP1;ratioP1;P1;durP2;ratioP2;P2;SDS_P1;SDS_P2;PMS_P1;PMS_P2;Temp;Humidity;BMP_temperature;BMP_pressure;BME280_temperature;BME280_humidity;BME280_pressure;Samples;Min_cycle;Max_cycle;Signal;HPM_P1;HPM_P2
2023/12/27 00:02:06;;;;;;;0.70;0.70;;;7.30;97.20;;;;;;5117536;28;20207;-80
2023/12/27 00:04:31;;;;;;;0.73;0.73;;;7.10;99.90;;;;;;5118215;28;20189;-81
2023/12/27 00:06:57;;;;;;;0.80;0.80;;;7.10;99.90;;;;;;5116735;28;20254;-82
2023/12/27 00:09:23;;;;;;;0.77;0.77;;;7.00;99.90;;;;;;5115503;28;20196;-80
2023/12/27 00:11:49;;;;;;;0.70;0.70;;;7.00;99.90;;;;;;5123185;27;20165;-81
2023/12/27 00:14:14;;;;;;;0.80;0.80;;;7.00;99.90;;;;;;5122291;27;20219;-81
2023/12/27 00:16:41;;;;;;;0.67;0.67;;;7.10;99.90;;;;;;5113422;28;20247;-82
2023/12/27 00:19:07;;;;;;;0.70;0.70;;;7.20;99.90;;;;;;5114772;28;20174;-82
2023/12/27 00:21:33;;;;;;;0.80;0.80;;;7.20;98.00;;;;;;5113733;28;20173;-81
2023/12/27 00:23:58;;;;;;;0.80;0.80;;;7.20;98.30;;;;;;5110947;28;20176;-81
2023/12/27 00:26:25;;;;;;;0.70;0.70;;;7.20;99.90;;;;;;5112076;28;20683;-81
2023/12/27 00:28:51;;;;;;;0.70;0.70;;;7.10;99.90;;;;;;5112983;28;20231;-81
2023/12/27 00:31:17;;;;;;;0.80;0.80;;;7.10;99.90;;;;;;5112747;28;20173;-81
2023/12/27 00:33:43;;;;;;;0.70;0.70;;;7.10;99.90;;;;;;5112333;28;20177;-81
2023/12/27 00:36:08;;;;;;;0.77;0.77;;;7.10;99.90;;;;;;5113655;28;20191;-80
2023/12/27 00:38:37;;;;;;;0.80;0.80;;;7.10;99.90;;;;;;5112083;28;20299;-82
2023/12/27 00:41:04;;;;;;;0.80;0.80;;;7.10;96.10;;;;;;5113932;28;20263;-79
2023/12/27 00:43:29;;;;;;;0.80;0.80;;;7.10;96.50;;;;;;5116106;28;20177;-82
2023/12/27 00:45:55;;;;;;;0.80;0.80;;;7.00;99.90;;;;;;5114926;28;20193;-81
2023/12/27 00:48:21;;;;;;;0.70;0.70;;;7.00;99.90;;;;;;5116494;28;20200;-81
2023/12/27 00:50:47;;;;;;;0.77;0.77;;;7.00;99.90;;;;;;5116930;28;20172;-81
2023/12/27 00:53:13;;;;;;;0.90;0.90;;;7.00;99.90;;;;;;5118920;28;20175;-81
2023/12/27 00:55:41;;;;;;;0.70;0.70;;;6.90;99.90;;;;;;5118592;28;20170;-81
2023/12/27 00:58:07;;;;;;;0.60;0.60;;;6.80;99.90;;;;;;5135003;28;20189;-77
2023/12/27 01:00:32;;;;;;;0.70;0.70;;;6.80;99.90;;;;;;5131308;28;20185;-82
2023/12/27 01:02:58;;;;;;;0.80;0.80;;;6.80;99.90;;;;;;5122498;28;20173;-82
2023/12/27 01:05:23;;;;;;;0.70;0.70;;;6.70;99.90;;;;;;5121629;28;20181;-82
2023/12/27 01:07:49;;;;;;;0.80;0.80;;;6.70;99.90;;;;;;5121471;28;20208;-81
2023/12/27 01:10:14;;;;;;;0.70;0.70;;;6.60;99.90;;;;;;5122310;28;20195;-82
2023/12/27 01:12:40;;;;;;;0.80;0.80;;;6.60;99.90;;;;;;5122206;27;20231;-82
2023/12/27 01:15:06;;;;;;;0.80;0.80;;;6.60;99.90;;;;;;5131802;28;20260;-79
2023/12/27 01:17:32;;;;;;;0.80;0.80;;;6.50;99.90;;;;;;5129802;28;20263;-82
2023/12/27 01:19:57;;;;;;;0.70;0.70;;;6.40;99.90;;;;;;5123286;28;20185;-82
2023/12/27 01:22:23;;;;;;;0.70;0.70;;;6.40;99.90;;;;;;5123714;28;20181;-81
2023/12/27 01:24:48;;;;;;;0.80;0.80;;;6.40;99.90;;;;;;5123949;28;20531;-82
2023/12/27 01:27:14;;;;;;;0.70;0.70;;;6.50;99.90;;;;;;5121920;28;20201;-82
2023/12/27 01:29:40;;;;;;;0.80;0.80;;;6.50;99.90;;;;;;5122170;28;20209;-82
2023/12/27 01:32:07;;;;;;;0.87;0.87;;;6.50;99.90;;;;;;5122365;28;20666;-82
2023/12/27 01:34:32;;;;;;;0.80;0.80;;;6.40;99.90;;;;;;5121420;28;20246;-82
2023/12/27 01:36:58;;;;;;;0.70;0.70;;;6.40;99.90;;;;;;5120534;28;20201;-82
2023/12/27 01:39:23;;;;;;;0.90;0.90;;;6.20;99.90;;;;;;5121448;28;20703;-81
2023/12/27 01:41:49;;;;;;;0.70;0.70;;;6.20;99.90;;;;;;5121320;28;20173;-82
2023/12/27 01:44:14;;;;;;;0.80;0.80;;;6.20;99.90;;;;;;5120498;28;20741;-82
2023/12/27 01:46:40;;;;;;;0.83;0.83;;;6.20;99.90;;;;;;5117836;28;20546;-82
2023/12/27 01:49:06;;;;;;;0.80;0.80;;;6.20;99.90;;;;;;5119703;28;20704;-82
2023/12/27 01:51:31;;;;;;;0.90;0.90;;;6.00;99.90;;;;;;5120268;27;20157;-80
2023/12/27 01:54:02;;;;;;;0.77;0.77;;;6.00;99.90;;;;;;5117441;28;20200;-81
2023/12/27 01:56:28;;;;;;;0.70;0.70;;;6.00;99.90;;;;;;5118542;28;20189;-82
2023/12/27 01:58:53;;;;;;;0.80;0.80;;;6.20;99.90;;;;;;5118165;28;20212;-83
2023/12/27 02:01:19;;;;;;;0.70;0.70;;;6.30;99.90;;;;;;5118912;28;20188;-81
2023/12/27 02:03:44;;;;;;;0.80;0.80;;;6.20;99.90;;;;;;5118395;28;20176;-82
2023/12/27 02:06:11;;;;;;;0.80;0.80;;;6.20;99.90;;;;;;5118594;28;20207;-82
2023/12/27 02:08:37;;;;;;;0.80;0.80;;;5.90;99.90;;;;;;5119318;28;20205;-82
2023/12/27 02:11:02;;;;;;;0.70;0.70;;;5.80;99.90;;;;;;5118594;27;20161;-81
2023/12/27 02:13:28;;;;;;;0.80;0.80;;;5.70;99.90;;;;;;5117869;28;20226;-79
2023/12/27 02:15:54;;;;;;;0.70;0.70;;;5.70;99.90;;;;;;5115896;28;20605;-82
2023/12/27 02:18:21;;;;;;;0.70;0.70;;;5.80;99.90;;;;;;5118389;28;20550;-81
2023/12/27 02:20:47;;;;;;;0.80;0.80;;;5.90;99.90;;;;;;5118028;28;20181;-82
2023/12/27 02:23:17;;;;;;;0.80;0.80;;;6.00;99.90;;;;;;5125529;28;20220;-80
2023/12/27 02:25:43;;;;;;;0.70;0.70;;;6.00;99.90;;;;;;5125280;28;20279;-82
2023/12/27 02:28:09;;;;;;;0.80;0.80;;;6.00;99.90;;;;;;5123354;28;20197;-82
2023/12/27 02:30:36;;;;;;;0.80;0.80;;;6.10;99.90;;;;;;5123135;28;20269;-82
2023/12/27 02:33:02;;;;;;;0.70;0.70;;;6.00;99.90;;;;;;5129377;28;20169;-79
2023/12/27 02:35:27;;;;;;;0.60;0.60;;;6.00;99.90;;;;;;5135971;28;20242;-78
2023/12/27 02:37:53;;;;;;;0.80;0.80;;;6.00;99.90;;;;;;5136108;28;20181;-79
2023/12/27 02:40:19;;;;;;;0.80;0.80;;;5.90;99.90;;;;;;5136105;28;20205;-79
2023/12/27 02:42:44;;;;;;;0.77;0.77;;;5.80;99.90;;;;;;5132930;28;20177;-82
2023/12/27 02:45:10;;;;;;;0.80;0.80;;;5.70;99.90;;;;;;5121953;28;20203;-81
2023/12/27 02:47:35;;;;;;;0.70;0.70;;;5.70;99.90;;;;;;5121353;28;20193;-82
2023/12/27 02:50:01;;;;;;;0.70;0.70;;;5.70;99.90;;;;;;5121208;28;20177;-81
2023/12/27 02:52:26;;;;;;;0.80;0.80;;;5.70;99.90;;;;;;5121322;28;20230;-81
2023/12/27 02:54:52;;;;;;;0.70;0.70;;;5.70;99.90;;;;;;5121397;28;20185;-79
2023/12/27 02:57:18;;;;;;;0.70;0.70;;;5.80;99.90;;;;;;5121284;28;20185;-81
2023/12/27 02:59:43;;;;;;;0.70;0.70;;;5.80;99.90;;;;;;5120867;28;20177;-81
2023/12/27 03:02:09;;;;;;;0.90;0.90;;;5.70;99.90;;;;;;5119421;27;20177;-81
2023/12/27 03:04:34;;;;;;;0.70;0.70;;;5.80;99.90;;;;;;5119924;28;20281;-81
2023/12/27 03:07:00;;;;;;;0.70;0.70;;;5.80;99.90;;;;;;5119208;28;20212;-81
2023/12/27 03:09:26;;;;;;;0.70;0.70;;;5.70;99.90;;;;;;5119361;28;20207;-81
2023/12/27 03:11:51;;;;;;;0.80;0.80;;;5.60;99.90;;;;;;5119911;28;20513;-81
2023/12/27 03:14:17;;;;;;;0.73;0.73;;;5.70;99.90;;;;;;5119225;28;20169;-82
2023/12/27 03:16:43;;;;;;;0.70;0.70;;;5.70;99.90;;;;;;5119562;28;20200;-81
2023/12/27 03:19:09;;;;;;;0.80;0.80;;;5.70;99.90;;;;;;5119372;28;20661;-81
2023/12/27 03:21:34;;;;;;;0.83;0.83;;;5.80;99.90;;;;;;5119614;28;20176;-80
2023/12/27 03:24:00;;;;;;;0.70;0.70;;;5.80;99.90;;;;;;5119313;28;20542;-81
2023/12/27 03:26:25;;;;;;;0.70;0.70;;;5.90;99.90;;;;;;5118482;28;20197;-81
2023/12/27 03:28:51;;;;;;;0.70;0.70;;;6.00;99.90;;;;;;5118691;28;20193;-83
2023/12/27 03:31:16;;;;;;;0.73;0.73;;;6.00;99.90;;;;;;5118539;28;20623;-82
2023/12/27 03:33:42;;;;;;;0.73;0.73;;;6.00;99.90;;;;;;5118903;28;20639;-82
2023/12/27 03:36:07;;;;;;;0.70;0.70;;;6.10;99.90;;;;;;5118949;28;20635;-81
2023/12/27 03:38:33;;;;;;;0.80;0.80;;;6.10;99.90;;;;;;5118724;28;20173;-81
2023/12/27 03:40:59;;;;;;;0.80;0.80;;;5.90;99.90;;;;;;5119124;28;20205;-82
2023/12/27 03:43:24;;;;;;;0.80;0.80;;;6.30;99.90;;;;;;5119511;28;20263;-80
2023/12/27 03:45:53;;;;;;;0.70;0.70;;;6.00;99.90;;;;;;5118267;28;20185;-82
2023/12/27 03:48:19;;;;;;;0.80;0.80;;;6.00;99.90;;;;;;5119903;28;20209;-82
2023/12/27 03:50:45;;;;;;;0.90;0.90;;;6.00;99.90;;;;;;5118990;28;20742;-82
2023/12/27 03:53:11;;;;;;;0.73;0.73;;;6.00;99.90;;;;;;5119403;28;20200;-80
2023/12/27 03:55:36;;;;;;;0.80;0.80;;;6.00;99.90;;;;;;5118479;28;20199;-81
2023/12/27 03:58:02;;;;;;;0.73;0.73;;;6.00;99.90;;;;;;5119569;28;20177;-82
2023/12/27 04:00:28;;;;;;;0.70;0.70;;;6.00;99.90;;;;;;5119082;28;20177;-81
2023/12/27 04:02:54;;;;;;;0.70;0.70;;;6.10;99.90;;;;;;5119301;28;20181;-82
2023/12/27 04:05:19;;;;;;;0.70;0.70;;;6.10;99.90;;;;;;5119050;28;20242;-81
2023/12/27 04:07:45;;;;;;;0.80;0.80;;;6.00;99.90;;;;;;5118993;28;20218;-81
2023/12/27 04:10:11;;;;;;;0.80;0.80;;;6.00;99.90;;;;;;5118141;28;20169;-80
2023/12/27 04:12:36;;;;;;;0.70;0.70;;;6.00;99.90;;;;;;5117163;28;20215;-82
2023/12/27 04:15:02;;;;;;;0.80;0.80;;;6.00;99.90;;;;;;5113902;28;20168;-82
2023/12/27 04:17:28;;;;;;;0.70;0.70;;;6.10;99.90;;;;;;5119881;28;20277;-80
2023/12/27 04:19:54;;;;;;;0.70;0.70;;;6.10;99.90;;;;;;5133184;28;20181;-79
2023/12/27 04:22:19;;;;;;;0.70;0.70;;;6.20;99.90;;;;;;5125263;28;20256;-81
2023/12/27 04:24:45;;;;;;;0.80;0.80;;;6.20;99.90;;;;;;5120727;28;20553;-80
2023/12/27 04:27:11;;;;;;;0.80;0.80;;;6.20;99.90;;;;;;5120226;28;20778;-82
2023/12/27 04:29:36;;;;;;;0.80;0.80;;;6.10;99.90;;;;;;5120299;28;20294;-84
2023/12/27 04:32:03;;;;;;;0.80;0.80;;;6.20;99.90;;;;;;5121726;28;20183;-80
2023/12/27 04:34:29;;;;;;;0.80;0.80;;;6.20;99.90;;;;;;5128249;28;20214;-79
2023/12/27 04:36:55;;;;;;;0.70;0.70;;;6.10;99.90;;;;;;5127489;28;20208;-80
2023/12/27 04:39:20;;;;;;;0.80;0.80;;;6.00;99.90;;;;;;5119187;28;20169;-82
2023/12/27 04:41:46;;;;;;;0.80;0.80;;;6.00;99.90;;;;;;5115239;28;20768;-81
2023/12/27 04:44:11;;;;;;;0.70;0.70;;;5.80;99.90;;;;;;5114700;28;20212;-82
2023/12/27 04:46:37;;;;;;;0.70;0.70;;;5.60;99.90;;;;;;5114469;28;20193;-82
2023/12/27 04:49:08;;;;;;;0.70;0.70;;;5.60;99.90;;;;;;5114002;28;20232;-83
2023/12/27 04:51:34;;;;;;;0.70;0.70;;;5.50;99.90;;;;;;5112946;28;20208;-81
2023/12/27 04:54:01;;;;;;;0.70;0.70;;;5.50;99.90;;;;;;5111111;28;20181;-81
2023/12/27 04:56:27;;;;;;;0.90;0.90;;;5.40;99.90;;;;;;5111860;28;20612;-82
2023/12/27 04:58:52;;;;;;;0.77;0.77;;;5.30;99.90;;;;;;5112270;28;20173;-82
2023/12/27 05:01:18;;;;;;;0.70;0.70;;;5.40;99.90;;;;;;5113209;28;20173;-81
2023/12/27 05:03:44;;;;;;;0.80;0.80;;;5.10;99.90;;;;;;5113491;28;20682;-81
2023/12/27 05:06:10;;;;;;;0.70;0.70;;;5.10;99.90;;;;;;5113576;28;20207;-82
2023/12/27 05:08:40;;;;;;;0.70;0.70;;;5.00;99.90;;;;;;5115508;28;20201;-82
2023/12/27 05:11:21;;;;;;;0.73;0.73;;;5.20;99.90;;;;;;5115136;28;20584;-78
2023/12/27 05:13:48;;;;;;;0.80;0.80;;;5.10;99.90;;;;;;5137841;28;20184;-80
2023/12/27 05:16:16;;;;;;;0.73;0.73;;;5.20;99.90;;;;;;5118122;28;20456;-83
2023/12/27 05:18:43;;;;;;;0.80;0.80;;;5.20;99.90;;;;;;5117185;28;20596;-82
2023/12/27 05:21:13;;;;;;;0.70;0.70;;;5.20;99.90;;;;;;5118473;28;20165;-83
2023/12/27 05:23:39;;;;;;;0.70;0.70;;;5.20;99.90;;;;;;5119360;28;20173;-83
2023/12/27 05:26:05;;;;;;;0.63;0.63;;;5.20;99.90;;;;;;5117661;28;20678;-82
2023/12/27 05:28:32;;;;;;;0.70;0.70;;;5.10;99.90;;;;;;5121719;28;20204;-82
2023/12/27 05:30:58;;;;;;;0.70;0.70;;;5.00;99.90;;;;;;5133648;28;20161;-80
2023/12/27 05:33:24;;;;;;;0.80;0.80;;;4.90;99.90;;;;;;5137216;28;20196;-79
2023/12/27 05:35:50;;;;;;;0.80;0.80;;;4.90;99.90;;;;;;5126829;28;20714;-79
2023/12/27 05:38:16;;;;;;;0.80;0.80;;;4.90;99.90;;;;;;5127834;28;20169;-81
2023/12/27 05:40:41;;;;;;;0.70;0.70;;;4.90;99.90;;;;;;5127594;28;20177;-82
2023/12/27 05:43:07;;;;;;;0.70;0.70;;;4.80;99.90;;;;;;5115606;28;20188;-82
2023/12/27 05:45:33;;;;;;;0.80;0.80;;;4.80;99.90;;;;;;5117632;27;20556;-84
2023/12/27 05:47:58;;;;;;;0.80;0.80;;;4.70;99.90;;;;;;5117155;28;20221;-82
2023/12/27 05:50:24;;;;;;;0.80;0.80;;;4.40;99.90;;;;;;5118392;28;20173;-81
2023/12/27 05:52:49;;;;;;;0.70;0.70;;;4.20;99.90;;;;;;5134625;28;20202;-79
2023/12/27 05:55:15;;;;;;;0.60;0.60;;;4.10;99.90;;;;;;5140233;28;20199;-80
2023/12/27 05:57:41;;;;;;;0.77;0.77;;;4.10;99.90;;;;;;5139631;28;20204;-79
2023/12/27 06:00:07;;;;;;;0.70;0.70;;;4.20;99.90;;;;;;5136130;28;20177;-83
2023/12/27 06:02:33;;;;;;;0.70;0.70;;;4.30;99.90;;;;;;5121117;28;20249;-82
2023/12/27 06:04:58;;;;;;;0.70;0.70;;;4.20;99.90;;;;;;5120689;28;20240;-82
2023/12/27 06:07:24;;;;;;;0.70;0.70;;;4.30;99.90;;;;;;5120065;28;20209;-81
2023/12/27 06:09:51;;;;;;;0.80;0.80;;;4.30;99.90;;;;;;5120783;28;20197;-80
2023/12/27 06:12:16;;;;;;;0.80;0.80;;;4.30;99.90;;;;;;5120995;28;20176;-82
2023/12/27 06:14:42;;;;;;;0.70;0.70;;;4.40;99.90;;;;;;5119797;28;20845;-82
2023/12/27 06:17:08;;;;;;;0.80;0.80;;;4.40;99.90;;;;;;5120067;28;20733;-82
2023/12/27 06:19:37;;;;;;;0.73;0.73;;;4.40;99.90;;;;;;5120285;28;20193;-82
2023/12/27 06:22:03;;;;;;;0.80;0.80;;;4.40;99.90;;;;;;5120342;28;20169;-82
2023/12/27 06:24:29;;;;;;;0.80;0.80;;;4.40;99.90;;;;;;5118006;28;20204;-82
2023/12/27 06:26:55;;;;;;;0.80;0.80;;;4.50;99.90;;;;;;5118697;28;20195;-82
2023/12/27 06:29:21;;;;;;;0.80;0.80;;;4.40;99.90;;;;;;5119207;27;20224;-82
2023/12/27 06:31:46;;;;;;;0.80;0.80;;;4.30;99.90;;;;;;5119712;28;20184;-81
2023/12/27 06:34:12;;;;;;;0.90;0.90;;;4.30;99.90;;;;;;5119983;28;20181;-81
2023/12/27 06:36:38;;;;;;;0.80;0.80;;;4.40;99.90;;;;;;5120169;28;20189;-82
2023/12/27 06:39:06;;;;;;;0.80;0.80;;;4.40;99.90;;;;;;5119786;28;20193;-83
2023/12/27 06:41:34;;;;;;;0.80;0.80;;;4.40;99.90;;;;;;5119682;28;20180;-82
2023/12/27 06:44:00;;;;;;;0.80;0.80;;;4.30;99.90;;;;;;5119249;28;20173;-81
2023/12/27 06:46:26;;;;;;;0.80;0.80;;;4.30;99.90;;;;;;5119047;28;20193;-82
2023/12/27 06:48:52;;;;;;;0.83;0.83;;;4.20;99.90;;;;;;5119701;28;20197;-82
2023/12/27 06:51:18;;;;;;;0.70;0.70;;;4.20;99.90;;;;;;5119474;28;20180;-81
2023/12/27 06:53:44;;;;;;;0.80;0.80;;;4.30;99.90;;;;;;5136073;28;20204;-80
2023/12/27 06:56:10;;;;;;;0.80;0.80;;;4.20;99.90;;;;;;5137809;28;20204;-80
2023/12/27 06:58:36;;;;;;;0.70;0.70;;;4.00;99.90;;;;;;5138468;28;20188;-79
2023/12/27 07:01:01;;;;;;;0.80;0.80;;;3.90;99.90;;;;;;5138015;28;20165;-80
2023/12/27 07:03:27;;;;;;;0.70;0.70;;;4.00;99.90;;;;;;5126870;28;20181;-83
2023/12/27 07:05:52;;;;;;;0.80;0.80;;;4.00;99.90;;;;;;5120512;28;20196;-81
2023/12/27 07:08:18;;;;;;;0.80;0.80;;;4.10;99.90;;;;;;5120482;28;20740;-82
2023/12/27 07:10:44;;;;;;;0.80;0.80;;;4.10;99.90;;;;;;5120282;28;20606;-83
2023/12/27 07:13:09;;;;;;;0.80;0.80;;;4.20;99.90;;;;;;5120142;28;20173;-83
2023/12/27 07:15:36;;;;;;;0.80;0.80;;;4.20;99.90;;;;;;5119666;28;20177;-81
2023/12/27 07:18:02;;;;;;;0.80;0.80;;;4.20;99.90;;;;;;5131837;28;20165;-80
2023/12/27 07:20:28;;;;;;;0.80;0.80;;;4.30;99.90;;;;;;5132116;28;20208;-83
2023/12/27 07:22:53;;;;;;;0.80;0.80;;;4.20;99.90;;;;;;5118468;28;20479;-82
2023/12/27 07:25:19;;;;;;;0.80;0.80;;;4.20;99.90;;;;;;5120480;28;20385;-82
2023/12/27 07:27:45;;;;;;;0.70;0.70;;;4.30;99.90;;;;;;5119388;28;20208;-81
2023/12/27 07:30:11;;;;;;;0.80;0.80;;;4.30;99.90;;;;;;5119210;28;20538;-83
2023/12/27 07:32:38;;;;;;;0.80;0.80;;;4.30;99.90;;;;;;5119001;28;20184;-82
2023/12/27 07:35:04;;;;;;;0.80;0.80;;;4.30;99.90;;;;;;5118814;28;20215;-83
2023/12/27 07:37:31;;;;;;;0.80;0.80;;;4.30;99.90;;;;;;5118866;28;20201;-82
2023/12/27 07:39:56;;;;;;;0.70;0.70;;;4.30;99.90;;;;;;5118192;28;20196;-83
2023/12/27 07:42:24;;;;;;;0.70;0.70;;;4.40;99.90;;;;;;5118575;28;20723;-83
2023/12/27 07:44:50;;;;;;;0.90;0.90;;;4.30;99.90;;;;;;5117896;28;20639;-83
2023/12/27 07:47:16;;;;;;;0.80;0.80;;;4.40;99.90;;;;;;5117590;28;20252;-82
2023/12/27 07:49:42;;;;;;;0.80;0.80;;;4.40;99.90;;;;;;5116248;28;20201;-82
2023/12/27 07:52:08;;;;;;;0.80;0.80;;;4.40;99.90;;;;;;5117022;28;20256;-82
2023/12/27 07:54:36;;;;;;;0.70;0.70;;;4.50;99.90;;;;;;5118195;28;20721;-83
2023/12/27 07:57:02;;;;;;;0.80;0.80;;;4.60;99.90;;;;;;5121322;28;20576;-79
2023/12/27 07:59:27;;;;;;;0.70;0.70;;;4.60;99.90;;;;;;5126903;28;20256;-81
2023/12/27 08:01:53;;;;;;;0.70;0.70;;;4.60;99.90;;;;;;5121726;28;20177;-83
2023/12/27 08:04:19;;;;;;;0.70;0.70;;;4.70;99.90;;;;;;5121469;28;20173;-83
2023/12/27 08:06:47;;;;;;;0.80;0.80;;;4.80;99.90;;;;;;5120714;28;20232;-82
2023/12/27 08:09:13;;;;;;;0.70;0.70;;;4.90;99.90;;;;;;5121318;28;20272;-82
2023/12/27 08:11:39;;;;;;;0.80;0.80;;;4.90;99.90;;;;;;5122356;28;20173;-83
2023/12/27 08:14:04;;;;;;;0.70;0.70;;;4.90;99.90;;;;;;5120959;28;20668;-82
2023/12/27 08:16:30;;;;;;;0.83;0.83;;;4.90;99.90;;;;;;5120720;28;20235;-82
2023/12/27 08:18:55;;;;;;;0.80;0.80;;;5.00;99.90;;;;;;5120148;28;20173;-82
2023/12/27 08:21:21;;;;;;;0.80;0.80;;;5.00;99.90;;;;;;5131607;28;20168;-80
2023/12/27 08:23:47;;;;;;;0.80;0.80;;;5.10;99.90;;;;;;5134325;28;20244;-79
2023/12/27 08:26:12;;;;;;;0.80;0.80;;;5.10;99.90;;;;;;5131198;28;20199;-82
2023/12/27 08:28:38;;;;;;;0.70;0.70;;;5.20;99.90;;;;;;5126106;28;20209;-82
2023/12/27 08:31:04;;;;;;;0.70;0.70;;;5.30;99.90;;;;;;5124141;28;20177;-81
2023/12/27 08:33:31;;;;;;;0.80;0.80;;;5.30;99.90;;;;;;5119393;28;20173;-83
2023/12/27 08:35:59;;;;;;;0.80;0.80;;;5.50;99.90;;;;;;5118336;28;20197;-82
2023/12/27 08:38:25;;;;;;;0.80;0.80;;;5.60;99.90;;;;;;5118819;28;20173;-83
2023/12/27 08:40:51;;;;;;;0.70;0.70;;;5.70;99.90;;;;;;5119006;28;20549;-83
2023/12/27 08:43:18;;;;;;;0.70;0.70;;;5.60;99.90;;;;;;5117998;28;20165;-82
2023/12/27 08:45:45;;;;;;;0.70;0.70;;;5.60;99.90;;;;;;5118422;28;20196;-81
2023/12/27 08:48:10;;;;;;;0.80;0.80;;;5.80;99.90;;;;;;5117941;28;20236;-82
2023/12/27 08:50:36;;;;;;;0.80;0.80;;;5.70;99.90;;;;;;5130914;28;20694;-82
2023/12/27 08:53:02;;;;;;;0.70;0.70;;;5.70;99.90;;;;;;5139142;28;20276;-82
2023/12/27 08:55:27;;;;;;;0.70;0.70;;;5.70;99.90;;;;;;5138152;27;20191;-82
2023/12/27 08:57:53;;;;;;;0.70;0.70;;;5.90;99.90;;;;;;5131820;27;20166;-83
2023/12/27 09:00:19;;;;;;;0.90;0.90;;;6.00;99.90;;;;;;5132280;27;20161;-83
2023/12/27 09:02:46;;;;;;;0.80;0.80;;;6.10;99.90;;;;;;5138518;27;20196;-83
2023/12/27 09:05:11;;;;;;;0.70;0.70;;;8.00;99.90;;;;;;5124395;27;20177;-82
2023/12/27 09:07:37;;;;;;;0.70;0.70;;;8.30;1.00;;;;;;5129571;27;20234;-82
2023/12/27 09:10:04;;;;;;;0.50;0.50;;;8.60;1.00;;;;;;5116953;28;20543;-82
2023/12/27 09:12:29;;;;;;;0.60;0.60;;;9.50;99.90;;;;;;5128028;27;20173;-83
2023/12/27 09:14:55;;;;;;;0.50;0.50;;;9.40;1.00;;;;;;5137024;27;20176;-82
2023/12/27 09:17:21;;;;;;;0.53;0.53;;;10.40;1.00;;;;;;5142690;27;20195;-83
2023/12/27 09:19:46;;;;;;;0.50;0.50;;;11.00;1.00;;;;;;5141863;27;20642;-84
2023/12/27 09:22:12;;;;;;;0.50;0.50;;;10.70;1.00;;;;;;5142349;27;20172;-83
2023/12/27 09:24:38;;;;;;;0.40;0.40;;;10.10;1.00;;;;;;5141443;27;20179;-82
2023/12/27 09:27:04;;;;;;;0.50;0.50;;;10.70;1.00;;;;;;5141073;27;20264;-80
2023/12/27 09:29:33;;;;;;;0.50;0.50;;;10.90;1.00;;;;;;5130827;27;20220;-82
2023/12/27 09:31:59;;;;;;;0.40;0.40;;;11.30;1.00;;;;;;5121220;28;20237;-83
2023/12/27 09:34:24;;;;;;;0.40;0.40;;;11.50;99.90;;;;;;5122227;28;20212;-82
2023/12/27 09:36:50;;;;;;;0.40;0.40;;;12.30;1.00;;;;;;5132486;27;20198;-82
2023/12/27 09:39:16;;;;;;;0.30;0.30;;;11.50;1.00;;;;;;5141163;27;20241;-83
2023/12/27 09:41:43;;;;;;;0.40;0.40;;;12.40;1.00;;;;;;5141409;27;20172;-81
2023/12/27 09:44:10;;;;;;;0.30;0.30;;;14.10;99.90;;;;;;5142349;27;20176;-84
2023/12/27 09:46:38;;;;;;;0.40;0.40;;;13.90;1.00;;;;;;5141560;27;20596;-83
2023/12/27 09:49:08;;;;;;;0.40;0.40;;;13.80;1.00;;;;;;5122328;27;20238;-81
2023/12/27 09:51:35;;;;;;;0.40;0.40;;;13.20;1.00;;;;;;5121958;28;20183;-81
2023/12/27 09:54:00;;;;;;;0.30;0.30;;;14.30;1.00;;;;;;5120474;28;20173;-83
2023/12/27 09:56:28;;;;;;;0.43;0.43;;;14.90;1.00;;;;;;5125491;27;20192;-83
2023/12/27 09:58:59;;;;;;;0.30;0.30;;;14.30;1.00;;;;;;5121662;27;20173;-82
2023/12/27 10:01:29;;;;;;;0.40;0.40;;;14.70;1.00;;;;;;5134376;27;20312;-80
2023/12/27 10:04:03;;;;;;;0.40;0.40;;;14.50;1.00;;;;;;5146853;27;20169;-82
2023/12/27 10:06:43;;;;;;;0.40;0.40;;;15.10;1.00;;;;;;5136213;27;20211;-80
2023/12/27 10:09:09;;;;;;;0.30;0.30;;;15.40;1.00;;;;;;5136804;27;20193;-83
2023/12/27 10:11:35;;;;;;;0.30;0.30;;;14.80;1.00;;;;;;5133978;27;20246;-82
2023/12/27 10:14:04;;;;;;;0.50;0.50;;;15.30;1.00;;;;;;5136384;27;20169;-82
2023/12/27 10:16:30;;;;;;;0.30;0.30;;;15.40;1.00;;;;;;5104119;28;20217;-83
2023/12/27 10:18:57;;;;;;;0.40;0.40;;;15.90;1.00;;;;;;5109672;28;20223;-81
2023/12/27 10:21:22;;;;;;;0.40;0.40;;;16.10;1.00;;;;;;5119820;28;20173;-83
2023/12/27 10:23:48;;;;;;;0.30;0.30;;;16.50;1.00;;;;;;5123278;28;20204;-83
2023/12/27 10:26:13;;;;;;;0.50;0.50;;;16.10;1.00;;;;;;5121260;28;20193;-83
2023/12/27 10:28:39;;;;;;;0.40;0.40;;;14.20;1.00;;;;;;5122022;28;20622;-80
2023/12/27 10:31:05;;;;;;;0.40;0.40;;;13.00;1.00;;;;;;5124499;28;20203;-80
2023/12/27 10:33:44;;;;;;;0.30;0.30;;;12.50;1.00;;;;;;5132262;28;20190;-80
2023/12/27 10:36:10;;;;;;;0.40;0.40;;;11.20;1.00;;;;;;5130022;28;20255;-80
2023/12/27 10:38:37;;;;;;;0.40;0.40;;;10.60;1.00;;;;;;5137275;28;20261;-80
2023/12/27 10:41:06;;;;;;;0.47;0.47;;;12.40;1.00;;;;;;5137363;28;20176;-80
2023/12/27 10:43:32;;;;;;;0.50;0.50;;;12.60;1.00;;;;;;5131859;28;20248;-81
2023/12/27 10:45:58;;;;;;;0.40;0.40;;;14.10;1.00;;;;;;5111933;28;20207;-82
2023/12/27 10:48:26;;;;;;;0.50;0.50;;;13.50;1.00;;;;;;5112662;28;20210;-83
2023/12/27 10:50:52;;;;;;;0.53;0.53;;;13.70;1.00;;;;;;5112915;28;20232;-81
2023/12/27 10:53:19;;;;;;;0.40;0.40;;;13.40;1.00;;;;;;5105863;28;20196;-83
2023/12/27 10:55:48;;;;;;;0.57;0.57;;;13.20;1.00;;;;;;5113933;28;20194;-82
2023/12/27 10:58:20;;;;;;;0.60;0.60;;;13.00;1.00;;;;;;5110548;28;20365;-83
2023/12/27 11:00:47;;;;;;;0.40;0.40;;;12.80;1.00;;;;;;5113378;28;20715;-81
2023/12/27 11:03:13;;;;;;;0.43;0.43;;;12.60;1.00;;;;;;5104536;28;20562;-82
2023/12/27 11:05:40;;;;;;;0.57;0.57;;;12.60;1.00;;;;;;5107594;28;20259;-82
2023/12/27 11:08:10;;;;;;;0.43;0.43;;;13.40;1.00;;;;;;5113428;28;20189;-82
2023/12/27 11:10:37;;;;;;;0.40;0.40;;;13.30;1.00;;;;;;5110400;28;20278;-83
2023/12/27 11:13:05;;;;;;;0.40;0.40;;;13.40;1.00;;;;;;5109679;28;20174;-83
2023/12/27 11:15:32;;;;;;;0.50;0.50;;;13.30;1.00;;;;;;5100350;28;20190;-82
2023/12/27 11:18:04;;;;;;;0.50;0.50;;;13.60;1.00;;;;;;5105590;28;20654;-81
2023/12/27 11:20:31;;;;;;;0.40;0.40;;;12.70;1.00;;;;;;5112055;28;20174;-83
2023/12/27 11:22:57;;;;;;;0.50;0.50;;;12.90;1.00;;;;;;5100932;28;20283;-82
2023/12/27 11:25:23;;;;;;;0.40;0.40;;;14.40;1.00;;;;;;5099276;28;20189;-79
2023/12/27 11:27:48;;;;;;;0.40;0.40;;;15.70;1.00;;;;;;5099868;28;20178;-82
2023/12/27 11:30:14;;;;;;;0.50;0.50;;;14.90;1.00;;;;;;5101086;28;20277;-82
2023/12/27 11:32:44;;;;;;;0.40;0.40;;;14.10;1.00;;;;;;5105365;28;20177;-84
2023/12/27 11:35:21;;;;;;;0.43;0.43;;;13.20;1.00;;;;;;5099317;28;20196;-82
2023/12/27 11:37:49;;;;;;;0.40;0.40;;;13.40;1.00;;;;;;5100270;28;20244;-83
2023/12/27 11:40:33;;;;;;;0.50;0.50;;;13.30;1.00;;;;;;5101882;28;20192;-81
2023/12/27 11:42:59;;;;;;;0.57;0.57;;;13.40;1.00;;;;;;5114476;28;20184;-83
2023/12/27 11:45:27;;;;;;;0.60;0.60;;;13.30;1.00;;;;;;5121826;28;20185;-81
2023/12/27 11:47:55;;;;;;;0.50;0.50;;;12.90;1.00;;;;;;5122479;28;20205;-82
2023/12/27 11:50:21;;;;;;;0.40;0.40;;;12.90;1.00;;;;;;5123431;28;20177;-81
2023/12/27 11:52:50;;;;;;;0.50;0.50;;;12.80;1.00;;;;;;5118249;28;20170;-82
2023/12/27 11:55:18;;;;;;;0.50;0.50;;;12.50;1.00;;;;;;5100969;28;20261;-83
2023/12/27 11:57:43;;;;;;;0.60;0.60;;;12.20;1.00;;;;;;5102155;28;20190;-83
2023/12/27 12:00:14;;;;;;;0.50;0.50;;;12.20;1.00;;;;;;5100922;28;20258;-83
2023/12/27 12:02:49;;;;;;;0.50;0.50;;;12.30;1.00;;;;;;5109003;28;20202;-82
2023/12/27 12:05:44;;;;;;;0.50;0.50;;;12.70;1.00;;;;;;5120025;28;20618;-83
2023/12/27 12:08:15;;;;;;;0.40;0.40;;;12.30;1.00;;;;;;5122210;28;20189;-82
2023/12/27 12:10:41;;;;;;;0.50;0.50;;;13.00;1.00;;;;;;5122280;28;20176;-83
2023/12/27 12:13:08;;;;;;;0.50;0.50;;;12.90;1.00;;;;;;5120981;28;20178;-82
2023/12/27 12:15:33;;;;;;;0.63;0.63;;;12.70;1.00;;;;;;5121043;28;20245;-84
2023/12/27 12:18:00;;;;;;;0.50;0.50;;;12.60;1.00;;;;;;5124041;28;20169;-83
2023/12/27 12:20:27;;;;;;;0.50;0.50;;;12.40;1.00;;;;;;5123707;28;20177;-83
2023/12/27 12:22:54;;;;;;;0.50;0.50;;;12.60;1.00;;;;;;5123677;28;20177;-82
2023/12/27 12:25:25;;;;;;;0.50;0.50;;;12.60;1.00;;;;;;5127956;27;20650;-79
2023/12/27 12:27:50;;;;;;;0.40;0.40;;;12.20;1.00;;;;;;5137236;28;20417;-80
2023/12/27 12:30:16;;;;;;;0.50;0.50;;;12.20;1.00;;;;;;5137124;28;20193;-79
2023/12/27 12:32:42;;;;;;;0.40;0.40;;;12.30;1.00;;;;;;5137370;28;20185;-80
2023/12/27 12:35:10;;;;;;;0.50;0.50;;;12.60;1.00;;;;;;5135770;28;20181;-82
2023/12/27 12:37:40;;;;;;;0.60;0.60;;;12.50;1.00;;;;;;5116855;28;20293;-82
2023/12/27 12:40:07;;;;;;;0.50;0.50;;;12.60;1.00;;;;;;5117405;28;20182;-81
2023/12/27 12:42:33;;;;;;;0.50;0.50;;;13.00;1.00;;;;;;5116880;28;20177;-81
2023/12/27 12:45:00;;;;;;;0.50;0.50;;;12.60;1.00;;;;;;5105453;28;20184;-82
2023/12/27 12:47:26;;;;;;;0.50;0.50;;;12.50;1.00;;;;;;5115336;28;20673;-82
2023/12/27 12:49:51;;;;;;;0.50;0.50;;;12.50;1.00;;;;;;5120654;28;20690;-80
2023/12/27 12:52:17;;;;;;;0.50;0.50;;;12.90;1.00;;;;;;5104092;28;20665;-83
2023/12/27 12:54:48;;;;;;;0.40;0.40;;;13.00;1.00;;;;;;5085586;28;20174;-84